sensor_id;sensor_type;location;lat;lon;timestamp;P1;durP1;ratioP1;P2;durP2;ratioP2
10063;SDS011;5071;52.360;13.134;2023-07-31T00:01:25;1.67;;;1.50;;
10063;SDS011;5071;52.360;13.134;2023-07-31T00:06:34;4.47;;;2.00;;
10063;SDS011;5071;52.360;13.134;2023-07-31T00:11:43;3.43;;;2.03;;
10063;SDS011;5071;52.360;13.134;2023-07-31T00:17:06;2.30;;;2.10;;
10063;SDS011;5071;52.360;13.134;2023-07-31T00:22:15;3.53;;;2.07;;
10063;SDS011;5071;52.360;13.134;2023-07-31T00:27:23;2.40;;;2.00;;
10063;SDS011;5071;52.360;13.134;2023-07-31T00:32:40;3.70;;;1.80;;
10063;SDS011;5071;52.360;13.134;2023-07-31T00:37:50;2.20;;;1.90;;
10063;SDS011;5071;52.360;13.134;2023-07-31T00:42:57;6.33;;;2.73;;
10063;SDS011;5071;52.360;13.134;2023-07-31T00:48:12;3.83;;;2.10;;
10063;SDS011;5071;52.360;13.134;2023-07-31T00:53:28;4.80;;;2.40;;
10063;SDS011;5071;52.360;13.134;2023-07-31T00:58:48;5.37;;;2.20;;
10063;SDS011;5071;52.360;13.134;2023-07-31T01:04:01;3.13;;;2.13;;
10063;SDS011;5071;52.360;13.134;2023-07-31T01:09:16;5.93;;;2.60;;
10063;SDS011;5071;52.360;13.134;2023-07-31T01:14:34;4.43;;;2.77;;
10063;SDS011;5071;52.360;13.134;2023-07-31T01:19:52;5.70;;;2.73;;
10063;SDS011;5071;52.360;13.134;2023-07-31T01:25:09;4.60;;;2.70;;
10063;SDS011;5071;52.360;13.134;2023-07-31T01:30:37;4.93;;;2.80;;
10063;SDS011;5071;52.360;13.134;2023-07-31T01:35:55;4.97;;;2.90;;
10063;SDS011;5071;52.360;13.134;2023-07-31T01:41:31;4.30;;;2.63;;
10063;SDS011;5071;52.360;13.134;2023-07-31T01:46:52;5.50;;;2.73;;
10063;SDS011;5071;52.360;13.134;2023-07-31T01:52:25;4.27;;;2.70;;
10063;SDS011;5071;52.360;13.134;2023-07-31T01:57:29;4.13;;;2.63;;
10063;SDS011;5071;52.360;13.134;2023-07-31T02:02:35;4.50;;;2.63;;
10063;SDS011;5071;52.360;13.134;2023-07-31T02:07:48;4.53;;;2.77;;
10063;SDS011;5071;52.360;13.134;2023-07-31T02:12:58;3.80;;;3.23;;
10063;SDS011;5071;52.360;13.134;2023-07-31T02:18:03;3.47;;;2.67;;
10063;SDS011;5071;52.360;13.134;2023-07-31T02:23:09;2.97;;;2.43;;
10063;SDS011;5071;52.360;13.134;2023-07-31T02:28:18;4.03;;;3.03;;
10063;SDS011;5071;52.360;13.134;2023-07-31T02:33:37;4.33;;;3.00;;
10063;SDS011;5071;52.360;13.134;2023-07-31T02:38:47;5.00;;;3.23;;
10063;SDS011;5071;52.360;13.134;2023-07-31T02:43:58;4.70;;;3.40;;
10063;SDS011;5071;52.360;13.134;2023-07-31T02:49:17;4.97;;;3.37;;
10063;SDS011;5071;52.360;13.134;2023-07-31T02:54:35;3.40;;;3.10;;
10063;SDS011;5071;52.360;13.134;2023-07-31T02:59:53;4.20;;;3.47;;
10063;SDS011;5071;52.360;13.134;2023-07-31T03:05:08;4.63;;;3.90;;
10063;SDS011;5071;52.360;13.134;2023-07-31T03:10:14;6.87;;;4.00;;
10063;SDS011;5071;52.360;13.134;2023-07-31T03:15:31;4.63;;;4.10;;
10063;SDS011;5071;52.360;13.134;2023-07-31T03:20:51;3.80;;;3.27;;
10063;SDS011;5071;52.360;13.134;2023-07-31T03:26:02;5.07;;;3.80;;
10063;SDS011;5071;52.360;13.134;2023-07-31T03:31:14;6.73;;;3.47;;
10063;SDS011;5071;52.360;13.134;2023-07-31T03:36:29;4.40;;;3.30;;
10063;SDS011;5071;52.360;13.134;2023-07-31T03:41:42;4.97;;;3.67;;
10063;SDS011;5071;52.360;13.134;2023-07-31T03:46:46;5.90;;;3.73;;
10063;SDS011;5071;52.360;13.134;2023-07-31T03:51:55;5.07;;;3.90;;
10063;SDS011;5071;52.360;13.134;2023-07-31T03:56:58;5.63;;;3.80;;
10063;SDS011;5071;52.360;13.134;2023-07-31T04:02:10;5.27;;;3.43;;
10063;SDS011;5071;52.360;13.134;2023-07-31T04:12:45;4.17;;;3.40;;
10063;SDS011;5071;52.360;13.134;2023-07-31T04:18:00;4.57;;;3.77;;
10063;SDS011;5071;52.360;13.134;2023-07-31T04:23:12;4.90;;;3.83;;
10063;SDS011;5071;52.360;13.134;2023-07-31T04:28:23;5.83;;;3.20;;
10063;SDS011;5071;52.360;13.134;2023-07-31T04:33:34;7.30;;;2.90;;
10063;SDS011;5071;52.360;13.134;2023-07-31T04:38:55;4.43;;;3.50;;
10063;SDS011;5071;52.360;13.134;2023-07-31T04:44:09;4.13;;;3.00;;
10063;SDS011;5071;52.360;13.134;2023-07-31T04:49:16;5.40;;;3.40;;
10063;SDS011;5071;52.360;13.134;2023-07-31T04:54:23;5.43;;;3.17;;
10063;SDS011;5071;52.360;13.134;2023-07-31T04:59:30;4.03;;;2.63;;
10063;SDS011;5071;52.360;13.134;2023-07-31T05:04:35;6.37;;;3.10;;
10063;SDS011;5071;52.360;13.134;2023-07-31T05:09:39;5.47;;;2.90;;
10063;SDS011;5071;52.360;13.134;2023-07-31T05:14:47;5.17;;;2.87;;
10063;SDS011;5071;52.360;13.134;2023-07-31T05:19:57;3.53;;;2.70;;
10063;SDS011;5071;52.360;13.134;2023-07-31T05:25:13;5.63;;;3.00;;
10063;SDS011;5071;52.360;13.134;2023-07-31T05:30:16;5.77;;;3.27;;
10063;SDS011;5071;52.360;13.134;2023-07-31T05:35:21;4.67;;;2.63;;
10063;SDS011;5071;52.360;13.134;2023-07-31T05:40:36;3.37;;;2.37;;
10063;SDS011;5071;52.360;13.134;2023-07-31T05:45:56;2.80;;;2.03;;
10063;SDS011;5071;52.360;13.134;2023-07-31T05:51:03;4.33;;;2.20;;
10063;SDS011;5071;52.360;13.134;2023-07-31T05:56:08;3.57;;;2.47;;
10063;SDS011;5071;52.360;13.134;2023-07-31T06:01:18;2.40;;;2.20;;
10063;SDS011;5071;52.360;13.134;2023-07-31T06:06:45;4.80;;;2.43;;
10063;SDS011;5071;52.360;13.134;2023-07-31T06:11:57;3.50;;;2.20;;
10063;SDS011;5071;52.360;13.134;2023-07-31T06:17:03;3.07;;;2.27;;
10063;SDS011;5071;52.360;13.134;2023-07-31T06:22:08;4.37;;;2.30;;
10063;SDS011;5071;52.360;13.134;2023-07-31T06:27:17;3.43;;;2.03;;
10063;SDS011;5071;52.360;13.134;2023-07-31T06:32:30;4.47;;;2.10;;
10063;SDS011;5071;52.360;13.134;2023-07-31T06:37:45;4.73;;;2.17;;
10063;SDS011;5071;52.360;13.134;2023-07-31T06:42:58;3.10;;;1.90;;
10063;SDS011;5071;52.360;13.134;2023-07-31T06:48:07;4.87;;;2.30;;
10063;SDS011;5071;52.360;13.134;2023-07-31T06:53:26;5.33;;;2.70;;
10063;SDS011;5071;52.360;13.134;2023-07-31T06:58:49;4.13;;;2.20;;
10063;SDS011;5071;52.360;13.134;2023-07-31T07:04:02;4.60;;;2.60;;
10063;SDS011;5071;52.360;13.134;2023-07-31T07:09:15;3.77;;;2.10;;
10063;SDS011;5071;52.360;13.134;2023-07-31T07:14:31;3.77;;;2.33;;
10063;SDS011;5071;52.360;13.134;2023-07-31T07:19:36;4.53;;;2.60;;
10063;SDS011;5071;52.360;13.134;2023-07-31T07:24:49;3.87;;;2.23;;
10063;SDS011;5071;52.360;13.134;2023-07-31T07:30:03;4.43;;;2.70;;
10063;SDS011;5071;52.360;13.134;2023-07-31T07:35:29;4.10;;;2.50;;
10063;SDS011;5071;52.360;13.134;2023-07-31T07:40:52;5.00;;;2.70;;
10063;SDS011;5071;52.360;13.134;2023-07-31T07:46:06;5.27;;;2.30;;
10063;SDS011;5071;52.360;13.134;2023-07-31T07:51:11;2.90;;;2.60;;
10063;SDS011;5071;52.360;13.134;2023-07-31T07:56:16;4.53;;;2.87;;
10063;SDS011;5071;52.360;13.134;2023-07-31T08:01:28;5.03;;;3.17;;
10063;SDS011;5071;52.360;13.134;2023-07-31T08:06:41;4.20;;;2.87;;
10063;SDS011;5071;52.360;13.134;2023-07-31T08:11:47;4.97;;;2.63;;
10063;SDS011;5071;52.360;13.134;2023-07-31T08:16:51;3.70;;;2.10;;
10063;SDS011;5071;52.360;13.134;2023-07-31T08:22:07;4.03;;;2.13;;
10063;SDS011;5071;52.360;13.134;2023-07-31T08:27:11;2.90;;;2.40;;
10063;SDS011;5071;52.360;13.134;2023-07-31T08:32:20;3.60;;;2.17;;
10063;SDS011;5071;52.360;13.134;2023-07-31T08:37:23;2.60;;;2.00;;
10063;SDS011;5071;52.360;13.134;2023-07-31T08:42:32;4.00;;;1.80;;
10063;SDS011;5071;52.360;13.134;2023-07-31T08:47:52;2.67;;;1.80;;
10063;SDS011;5071;52.360;13.134;2023-07-31T08:52:54;1.97;;;1.33;;
10063;SDS011;5071;52.360;13.134;2023-07-31T08:58:14;1.27;;;1.07;;
10063;SDS011;5071;52.360;13.134;2023-07-31T09:03:48;1.00;;;0.70;;
10063;SDS011;5071;52.360;13.134;2023-07-31T09:08:59;1.37;;;0.80;;
10063;SDS011;5071;52.360;13.134;2023-07-31T09:14:04;1.67;;;1.00;;
10063;SDS011;5071;52.360;13.134;2023-07-31T09:19:14;1.53;;;0.80;;
10063;SDS011;5071;52.360;13.134;2023-07-31T09:24:33;3.80;;;1.40;;
10063;SDS011;5071;52.360;13.134;2023-07-31T09:29:42;2.77;;;1.70;;
10063;SDS011;5071;52.360;13.134;2023-07-31T09:40:56;5.53;;;2.77;;
10063;SDS011;5071;52.360;13.134;2023-07-31T09:46:13;4.57;;;2.57;;
10063;SDS011;5071;52.360;13.134;2023-07-31T09:51:31;3.10;;;2.77;;
10063;SDS011;5071;52.360;13.134;2023-07-31T09:56:36;4.93;;;3.07;;
10063;SDS011;5071;52.360;13.134;2023-07-31T10:01:45;3.83;;;2.80;;
10063;SDS011;5071;52.360;13.134;2023-07-31T10:07:05;4.97;;;3.23;;
10063;SDS011;5071;52.360;13.134;2023-07-31T10:12:23;7.50;;;2.90;;
10063;SDS011;5071;52.360;13.134;2023-07-31T10:17:37;5.60;;;2.97;;
10063;SDS011;5071;52.360;13.134;2023-07-31T10:22:53;3.73;;;2.97;;
10063;SDS011;5071;52.360;13.134;2023-07-31T10:28:05;3.83;;;2.53;;
10063;SDS011;5071;52.360;13.134;2023-07-31T10:33:12;3.75;;;2.70;;
10063;SDS011;5071;52.360;13.134;2023-07-31T10:38:20;3.30;;;2.60;;
10063;SDS011;5071;52.360;13.134;2023-07-31T10:43:29;4.40;;;2.45;;
10063;SDS011;5071;52.360;13.134;2023-07-31T10:48:44;6.25;;;2.80;;
10063;SDS011;5071;52.360;13.134;2023-07-31T10:54:16;4.25;;;2.22;;
10063;SDS011;5071;52.360;13.134;2023-07-31T10:59:34;3.05;;;2.35;;
10063;SDS011;5071;52.360;13.134;2023-07-31T11:05:09;2.88;;;2.50;;
10063;SDS011;5071;52.360;13.134;2023-07-31T11:10:18;5.57;;;2.80;;
10063;SDS011;5071;52.360;13.134;2023-07-31T11:15:26;4.03;;;2.30;;
10063;SDS011;5071;52.360;13.134;2023-07-31T11:20:29;8.02;;;2.78;;
10063;SDS011;5071;52.360;13.134;2023-07-31T11:25:37;4.70;;;2.35;;
10063;SDS011;5071;52.360;13.134;2023-07-31T11:30:54;3.60;;;2.20;;
10063;SDS011;5071;52.360;13.134;2023-07-31T11:41:36;4.40;;;2.45;;
10063;SDS011;5071;52.360;13.134;2023-07-31T11:46:47;5.00;;;2.75;;
10063;SDS011;5071;52.360;13.134;2023-07-31T11:51:53;3.08;;;2.17;;
10063;SDS011;5071;52.360;13.134;2023-07-31T11:57:09;5.30;;;2.30;;
10063;SDS011;5071;52.360;13.134;2023-07-31T12:02:18;4.32;;;2.58;;
10063;SDS011;5071;52.360;13.134;2023-07-31T12:07:44;3.88;;;2.00;;
10063;SDS011;5071;52.360;13.134;2023-07-31T12:13:20;3.05;;;2.47;;
10063;SDS011;5071;52.360;13.134;2023-07-31T12:18:49;4.35;;;2.72;;
10063;SDS011;5071;52.360;13.134;2023-07-31T12:24:00;4.63;;;2.15;;
10063;SDS011;5071;52.360;13.134;2023-07-31T12:29:33;3.40;;;2.17;;
10063;SDS011;5071;52.360;13.134;2023-07-31T12:35:22;2.22;;;1.60;;
10063;SDS011;5071;52.360;13.134;2023-07-31T12:40:37;3.40;;;2.08;;
10063;SDS011;5071;52.360;13.134;2023-07-31T12:46:04;4.03;;;2.20;;
10063;SDS011;5071;52.360;13.134;2023-07-31T12:51:36;3.72;;;2.20;;
10063;SDS011;5071;52.360;13.134;2023-07-31T12:56:53;2.45;;;1.95;;
10063;SDS011;5071;52.360;13.134;2023-07-31T13:02:05;3.22;;;2.00;;
10063;SDS011;5071;52.360;13.134;2023-07-31T13:07:14;2.40;;;2.20;;
10063;SDS011;5071;52.360;13.134;2023-07-31T13:12:33;4.82;;;2.28;;
10063;SDS011;5071;52.360;13.134;2023-07-31T13:17:39;4.57;;;2.33;;
10063;SDS011;5071;52.360;13.134;2023-07-31T13:22:54;3.45;;;2.55;;
10063;SDS011;5071;52.360;13.134;2023-07-31T13:28:25;4.05;;;2.50;;
10063;SDS011;5071;52.360;13.134;2023-07-31T13:33:35;4.00;;;2.55;;
10063;SDS011;5071;52.360;13.134;2023-07-31T13:38:41;4.60;;;2.40;;
10063;SDS011;5071;52.360;13.134;2023-07-31T13:43:50;3.90;;;2.50;;
10063;SDS011;5071;52.360;13.134;2023-07-31T13:48:57;4.43;;;2.95;;
10063;SDS011;5071;52.360;13.134;2023-07-31T13:54:05;3.03;;;2.08;;
10063;SDS011;5071;52.360;13.134;2023-07-31T13:59:20;3.83;;;2.50;;
10063;SDS011;5071;52.360;13.134;2023-07-31T14:04:26;3.15;;;2.10;;
10063;SDS011;5071;52.360;13.134;2023-07-31T14:09:36;2.40;;;2.20;;
10063;SDS011;5071;52.360;13.134;2023-07-31T14:14:47;4.47;;;2.90;;
10063;SDS011;5071;52.360;13.134;2023-07-31T14:19:50;2.80;;;2.13;;
10063;SDS011;5071;52.360;13.134;2023-07-31T14:24:53;2.83;;;2.10;;
10063;SDS011;5071;52.360;13.134;2023-07-31T14:29:55;4.05;;;2.10;;
10063;SDS011;5071;52.360;13.134;2023-07-31T14:34:59;4.55;;;2.42;;
10063;SDS011;5071;52.360;13.134;2023-07-31T14:40:02;4.13;;;2.80;;
10063;SDS011;5071;52.360;13.134;2023-07-31T14:45:05;3.00;;;2.22;;
10063;SDS011;5071;52.360;13.134;2023-07-31T14:50:10;3.15;;;2.25;;
10063;SDS011;5071;52.360;13.134;2023-07-31T14:55:12;5.63;;;2.50;;
10063;SDS011;5071;52.360;13.134;2023-07-31T15:00:15;2.80;;;2.30;;
10063;SDS011;5071;52.360;13.134;2023-07-31T15:05:18;3.88;;;2.50;;
10063;SDS011;5071;52.360;13.134;2023-07-31T15:10:22;3.38;;;2.38;;
10063;SDS011;5071;52.360;13.134;2023-07-31T15:15:24;4.05;;;2.60;;
10063;SDS011;5071;52.360;13.134;2023-07-31T15:20:27;3.15;;;2.53;;
10063;SDS011;5071;52.360;13.134;2023-07-31T15:25:30;4.88;;;2.92;;
10063;SDS011;5071;52.360;13.134;2023-07-31T15:30:32;3.08;;;2.20;;
10063;SDS011;5071;52.360;13.134;2023-07-31T15:35:36;3.75;;;2.55;;
10063;SDS011;5071;52.360;13.134;2023-07-31T15:40:38;3.60;;;2.38;;
10063;SDS011;5071;52.360;13.134;2023-07-31T15:45:40;3.08;;;2.65;;
10063;SDS011;5071;52.360;13.134;2023-07-31T15:50:44;6.00;;;2.55;;
10063;SDS011;5071;52.360;13.134;2023-07-31T15:55:46;3.08;;;2.42;;
10063;SDS011;5071;52.360;13.134;2023-07-31T16:00:48;4.05;;;2.33;;
10063;SDS011;5071;52.360;13.134;2023-07-31T16:05:52;3.05;;;2.38;;
10063;SDS011;5071;52.360;13.134;2023-07-31T16:10:54;4.18;;;2.40;;
10063;SDS011;5071;52.360;13.134;2023-07-31T16:15:56;3.17;;;2.30;;
10063;SDS011;5071;52.360;13.134;2023-07-31T16:21:00;4.72;;;2.55;;
10063;SDS011;5071;52.360;13.134;2023-07-31T16:26:02;4.93;;;2.28;;
10063;SDS011;5071;52.360;13.134;2023-07-31T16:31:03;3.42;;;2.58;;
10063;SDS011;5071;52.360;13.134;2023-07-31T16:36:07;3.20;;;1.88;;
10063;SDS011;5071;52.360;13.134;2023-07-31T16:41:09;2.67;;;1.98;;
10063;SDS011;5071;52.360;13.134;2023-07-31T16:46:11;3.33;;;1.85;;
10063;SDS011;5071;52.360;13.134;2023-07-31T16:51:14;2.90;;;2.00;;
10063;SDS011;5071;52.360;13.134;2023-07-31T16:56:16;2.53;;;1.85;;
10063;SDS011;5071;52.360;13.134;2023-07-31T17:01:19;2.33;;;1.70;;
10063;SDS011;5071;52.360;13.134;2023-07-31T17:06:22;2.72;;;1.80;;
10063;SDS011;5071;52.360;13.134;2023-07-31T17:11:25;2.05;;;1.67;;
10063;SDS011;5071;52.360;13.134;2023-07-31T17:16:27;3.90;;;1.67;;
10063;SDS011;5071;52.360;13.134;2023-07-31T17:21:31;4.30;;;1.75;;
10063;SDS011;5071;52.360;13.134;2023-07-31T17:26:33;2.95;;;1.50;;
10063;SDS011;5071;52.360;13.134;2023-07-31T17:31:35;2.25;;;1.85;;
10063;SDS011;5071;52.360;13.134;2023-07-31T17:36:38;2.22;;;1.77;;
10063;SDS011;5071;52.360;13.134;2023-07-31T17:41:41;4.45;;;1.85;;
10063;SDS011;5071;52.360;13.134;2023-07-31T17:46:43;2.05;;;1.50;;
10063;SDS011;5071;52.360;13.134;2023-07-31T17:51:46;2.08;;;1.60;;
10063;SDS011;5071;52.360;13.134;2023-07-31T17:56:48;2.85;;;1.70;;
10063;SDS011;5071;52.360;13.134;2023-07-31T18:01:50;1.70;;;1.60;;
10063;SDS011;5071;52.360;13.134;2023-07-31T18:06:53;3.10;;;1.85;;
10063;SDS011;5071;52.360;13.134;2023-07-31T18:11:55;2.57;;;1.90;;
10063;SDS011;5071;52.360;13.134;2023-07-31T18:16:57;2.17;;;1.73;;
10063;SDS011;5071;52.360;13.134;2023-07-31T18:22:00;2.90;;;2.38;;
10063;SDS011;5071;52.360;13.134;2023-07-31T18:27:03;2.77;;;1.90;;
10063;SDS011;5071;52.360;13.134;2023-07-31T18:32:06;2.67;;;2.00;;
10063;SDS011;5071;52.360;13.134;2023-07-31T18:37:09;2.70;;;2.13;;
10063;SDS011;5071;52.360;13.134;2023-07-31T18:42:12;2.85;;;2.00;;
10063;SDS011;5071;52.360;13.134;2023-07-31T18:47:14;3.85;;;2.25;;
10063;SDS011;5071;52.360;13.134;2023-07-31T18:52:17;2.38;;;2.13;;
10063;SDS011;5071;52.360;13.134;2023-07-31T18:57:19;2.83;;;2.35;;
10063;SDS011;5071;52.360;13.134;2023-07-31T19:02:21;3.65;;;2.83;;
10063;SDS011;5071;52.360;13.134;2023-07-31T19:07:24;3.15;;;2.30;;
10063;SDS011;5071;52.360;13.134;2023-07-31T19:12:26;3.65;;;2.47;;
10063;SDS011;5071;52.360;13.134;2023-07-31T19:17:28;3.08;;;2.53;;
10063;SDS011;5071;52.360;13.134;2023-07-31T19:22:31;3.63;;;2.13;;
10063;SDS011;5071;52.360;13.134;2023-07-31T19:27:33;4.22;;;2.85;;
10063;SDS011;5071;52.360;13.134;2023-07-31T19:32:35;3.78;;;2.25;;
10063;SDS011;5071;52.360;13.134;2023-07-31T19:37:38;3.33;;;2.40;;
10063;SDS011;5071;52.360;13.134;2023-07-31T19:42:40;2.20;;;1.90;;
10063;SDS011;5071;52.360;13.134;2023-07-31T19:47:42;4.25;;;2.50;;
10063;SDS011;5071;52.360;13.134;2023-07-31T19:52:46;5.17;;;3.23;;
10063;SDS011;5071;52.360;13.134;2023-07-31T19:57:48;4.47;;;3.00;;
10063;SDS011;5071;52.360;13.134;2023-07-31T20:02:51;4.53;;;2.63;;
10063;SDS011;5071;52.360;13.134;2023-07-31T20:07:54;5.53;;;2.80;;
10063;SDS011;5071;52.360;13.134;2023-07-31T20:12:56;3.17;;;2.87;;
10063;SDS011;5071;52.360;13.134;2023-07-31T20:17:58;4.00;;;2.90;;
10063;SDS011;5071;52.360;13.134;2023-07-31T20:23:02;3.37;;;2.43;;
10063;SDS011;5071;52.360;13.134;2023-07-31T20:28:06;3.50;;;2.70;;
10063;SDS011;5071;52.360;13.134;2023-07-31T20:33:08;4.30;;;3.10;;
10063;SDS011;5071;52.360;13.134;2023-07-31T20:38:11;5.33;;;3.23;;
10063;SDS011;5071;52.360;13.134;2023-07-31T20:43:13;5.67;;;3.07;;
10063;SDS011;5071;52.360;13.134;2023-07-31T20:48:15;5.63;;;3.10;;
10063;SDS011;5071;52.360;13.134;2023-07-31T20:53:18;5.40;;;2.60;;
10063;SDS011;5071;52.360;13.134;2023-07-31T20:58:20;5.83;;;3.33;;
10063;SDS011;5071;52.360;13.134;2023-07-31T21:03:22;4.67;;;3.10;;
10063;SDS011;5071;52.360;13.134;2023-07-31T21:08:25;4.63;;;2.67;;
10063;SDS011;5071;52.360;13.134;2023-07-31T21:13:27;4.90;;;3.20;;
10063;SDS011;5071;52.360;13.134;2023-07-31T21:18:29;5.83;;;3.23;;
10063;SDS011;5071;52.360;13.134;2023-07-31T21:23:32;5.27;;;3.50;;
10063;SDS011;5071;52.360;13.134;2023-07-31T21:28:35;5.43;;;2.80;;
10063;SDS011;5071;52.360;13.134;2023-07-31T21:33:36;5.43;;;3.10;;
10063;SDS011;5071;52.360;13.134;2023-07-31T21:38:40;5.67;;;3.80;;
10063;SDS011;5071;52.360;13.134;2023-07-31T21:43:42;5.03;;;3.67;;
10063;SDS011;5071;52.360;13.134;2023-07-31T21:48:44;4.23;;;3.40;;
10063;SDS011;5071;52.360;13.134;2023-07-31T21:53:47;4.57;;;3.33;;
10063;SDS011;5071;52.360;13.134;2023-07-31T21:58:49;5.73;;;3.73;;
10063;SDS011;5071;52.360;13.134;2023-07-31T22:03:51;3.40;;;3.10;;
10063;SDS011;5071;52.360;13.134;2023-07-31T22:08:54;5.80;;;3.17;;
10063;SDS011;5071;52.360;13.134;2023-07-31T22:13:56;5.70;;;3.43;;
10063;SDS011;5071;52.360;13.134;2023-07-31T22:18:59;7.17;;;3.57;;
10063;SDS011;5071;52.360;13.134;2023-07-31T22:24:02;5.97;;;3.40;;
10063;SDS011;5071;52.360;13.134;2023-07-31T22:29:04;5.60;;;3.90;;
10063;SDS011;5071;52.360;13.134;2023-07-31T22:34:07;5.73;;;3.27;;
10063;SDS011;5071;52.360;13.134;2023-07-31T22:39:10;10.00;;;3.90;;
10063;SDS011;5071;52.360;13.134;2023-07-31T22:44:13;4.57;;;3.60;;
10063;SDS011;5071;52.360;13.134;2023-07-31T22:49:14;7.40;;;3.50;;
10063;SDS011;5071;52.360;13.134;2023-07-31T22:54:18;6.33;;;3.43;;
10063;SDS011;5071;52.360;13.134;2023-07-31T22:59:20;5.27;;;3.50;;
10063;SDS011;5071;52.360;13.134;2023-07-31T23:04:22;4.87;;;3.60;;
10063;SDS011;5071;52.360;13.134;2023-07-31T23:09:25;5.97;;;4.20;;
10063;SDS011;5071;52.360;13.134;2023-07-31T23:14:27;5.17;;;3.20;;
10063;SDS011;5071;52.360;13.134;2023-07-31T23:19:30;10.03;;;4.40;;
10063;SDS011;5071;52.360;13.134;2023-07-31T23:24:33;4.43;;;3.67;;
10063;SDS011;5071;52.360;13.134;2023-07-31T23:29:37;4.87;;;3.53;;
10063;SDS011;5071;52.360;13.134;2023-07-31T23:34:39;6.13;;;3.83;;
10063;SDS011;5071;52.360;13.134;2023-07-31T23:39:43;5.13;;;3.80;;
10063;SDS011;5071;52.360;13.134;2023-07-31T23:44:45;4.60;;;2.97;;
10063;SDS011;5071;52.360;13.134;2023-07-31T23:50:01;4.47;;;3.37;;
10063;SDS011;5071;52.360;13.134;2023-07-31T23:55:05;5.83;;;3.40;;
